Crestview, Florida
Current Conditions -  °F | °C
As of 12:53 AM on Thursday 27 Nov 2014 (Local Time) from KCEW Reporting Station
Clear Clear  
Wind Chill: 47°   Ceiling: Unl
Heat Index: 49°   Visibility: 10mi
Dew Point: 43°   Wind: 6mph
Humidity: 80%   Direction: 250°WSW
Pressure: 30.22"   Gusts: NA
Location:  30.76°N, 86.57°W
Report Text: KCEW 270653Z AUTO 25005KT 10SM CLR 09/06 A3022 RMK AO2 SLP231 T00940061
Loading
Personal Weather Stations






























Interactive Weather Map New forecast layout! Learn more

10-Day Weather Forecast

Advertisements
Track Severe Weather on mobile